Time;durP1;ratioP1;P1;durP2;ratioP2;P2;SDS_P1;SDS_P2;PMS_P1;PMS_P2;Temp;Humidity;BMP_temperature;BMP_pressure;BME280_temperature;BME280_humidity;BME280_pressure;Samples;Min_cycle;Max_cycle;Signal;HPM_P1;HPM_P2
2021/03/06 00:01:06;;;;;;;9.07;4.65;;;6.90;62.00;;;;;;4248109;27;20047;-70
2021/03/06 00:03:08;;;;;;;9.27;4.45;;;7.10;54.40;;;;;;4267286;27;20054;-71
2021/03/06 00:05:12;;;;;;;7.40;4.90;;;6.80;55.10;;;;;;4265784;27;20058;-72
2021/03/06 00:07:13;;;;;;;14.18;5.68;;;6.40;52.10;;;;;;4265175;27;20043;-72
2021/03/06 00:09:15;;;;;;;10.30;4.95;;;6.00;53.20;;;;;;4246293;27;20101;-71
2021/03/06 00:11:17;;;;;;;10.38;4.93;;;5.90;54.00;;;;;;4264602;27;20054;-71
2021/03/06 00:13:19;;;;;;;7.30;4.53;;;6.30;58.10;;;;;;4264186;27;20047;-71
2021/03/06 00:15:24;;;;;;;9.73;5.32;;;7.00;59.80;;;;;;4246094;27;20092;-72
2021/03/06 00:17:26;;;;;;;6.75;5.00;;;6.50;57.20;;;;;;4264131;27;20138;-71
2021/03/06 00:19:28;;;;;;;8.13;5.32;;;6.10;56.80;;;;;;4264549;27;20050;-72
2021/03/06 00:21:32;;;;;;;11.10;5.18;;;6.20;54.10;;;;;;4246595;27;20043;-71
2021/03/06 00:23:33;;;;;;;6.15;4.05;;;6.50;56.40;;;;;;4264416;27;20047;-71
2021/03/06 00:25:35;;;;;;;6.82;4.80;;;6.90;57.20;;;;;;4264773;27;20375;-71
2021/03/06 00:27:38;;;;;;;6.95;5.57;;;6.90;56.30;;;;;;4264641;27;20053;-71
2021/03/06 00:29:39;;;;;;;9.15;5.05;;;6.80;53.40;;;;;;4264994;27;20074;-71
2021/03/06 00:31:42;;;;;;;7.53;4.72;;;7.50;56.30;;;;;;4264159;27;20436;-72
2021/03/06 00:33:44;;;;;;;6.20;4.68;;;7.40;57.00;;;;;;4264076;27;20050;-72
2021/03/06 00:35:46;;;;;;;8.00;5.03;;;7.60;58.90;;;;;;4264031;27;20046;-72
2021/03/06 00:37:48;;;;;;;7.82;4.05;;;7.60;52.00;;;;;;4263770;27;20042;-71
2021/03/06 00:39:50;;;;;;;12.02;5.80;;;8.20;58.50;;;;;;4263748;27;20046;-71
2021/03/06 00:41:51;;;;;;;10.25;5.00;;;7.90;50.40;;;;;;4263989;27;20076;-71
2021/03/06 00:43:53;;;;;;;9.98;3.50;;;8.00;52.40;;;;;;4263791;27;20099;-70
2021/03/06 00:45:54;;;;;;;8.02;5.35;;;8.10;58.20;;;;;;4263521;27;20058;-71
2021/03/06 00:47:56;;;;;;;4.55;3.42;;;7.70;49.80;;;;;;4263448;27;20082;-71
2021/03/06 00:49:58;;;;;;;7.78;4.55;;;8.60;55.00;;;;;;4263717;27;20104;-71
2021/03/06 00:52:01;;;;;;;4.88;3.28;;;8.20;51.30;;;;;;4245673;27;20457;-71
2021/03/06 00:54:03;;;;;;;11.77;5.72;;;8.40;58.40;;;;;;4264172;27;20050;-70
2021/03/06 00:56:05;;;;;;;8.38;5.53;;;8.20;48.80;;;;;;4263810;27;20043;-69
2021/03/06 00:58:07;;;;;;;8.50;5.57;;;7.80;51.20;;;;;;4263655;27;20050;-71
2021/03/06 01:00:10;;;;;;;6.57;4.85;;;7.60;52.20;;;;;;4263572;27;20046;-71
2021/03/06 01:02:12;;;;;;;5.90;4.63;;;7.20;52.40;;;;;;4263758;27;20046;-71
2021/03/06 01:04:14;;;;;;;7.05;4.80;;;7.20;54.60;;;;;;4263544;27;20043;-71
2021/03/06 01:06:16;;;;;;;5.78;4.35;;;7.30;57.80;;;;;;4263827;27;20495;-69
2021/03/06 01:08:17;;;;;;;9.13;5.53;;;7.80;57.00;;;;;;4264955;27;20042;-72
2021/03/06 01:10:23;;;;;;;9.05;3.72;;;7.70;53.80;;;;;;4267345;27;20097;-69
2021/03/06 01:12:26;;;;;;;8.63;4.38;;;7.80;54.50;;;;;;4267854;27;20413;-70
2021/03/06 01:14:28;;;;;;;6.68;5.18;;;7.80;58.10;;;;;;4267515;27;20047;-72
2021/03/06 01:16:30;;;;;;;6.15;4.28;;;8.40;54.30;;;;;;4267667;27;20045;-71
2021/03/06 01:18:32;;;;;;;5.13;3.08;;;8.50;55.80;;;;;;4268245;27;20051;-71
2021/03/06 01:20:35;;;;;;;9.43;5.15;;;8.40;58.10;;;;;;4267972;27;20043;-69
2021/03/06 01:22:37;;;;;;;14.13;5.80;;;8.30;51.90;;;;;;4271011;27;20047;-72
2021/03/06 01:24:38;;;;;;;8.70;5.80;;;7.60;50.10;;;;;;4270186;27;20520;-70
2021/03/06 01:26:42;;;;;;;6.78;5.43;;;7.40;52.50;;;;;;4270060;27;20043;-75
2021/03/06 01:28:43;;;;;;;11.77;6.78;;;7.20;53.90;;;;;;4269025;27;20039;-69
2021/03/06 01:30:45;;;;;;;15.65;7.18;;;6.50;56.00;;;;;;4267208;27;20050;-72
2021/03/06 01:32:47;;;;;;;9.23;5.97;;;6.40;53.60;;;;;;4268577;27;20122;-71
2021/03/06 01:34:49;;;;;;;12.13;6.85;;;6.70;54.60;;;;;;4268936;27;20125;-71
2021/03/06 01:36:50;;;;;;;6.28;4.28;;;6.20;53.30;;;;;;4266810;27;20050;-70
2021/03/06 01:38:52;;;;;;;6.88;4.35;;;7.00;62.10;;;;;;4266585;27;20079;-71
2021/03/06 01:40:54;;;;;;;6.97;4.55;;;7.10;56.40;;;;;;4266380;27;20087;-71
2021/03/06 01:42:58;;;;;;;7.22;4.32;;;7.30;54.40;;;;;;4248241;27;20148;-71
2021/03/06 01:44:59;;;;;;;7.97;5.90;;;7.20;62.00;;;;;;4266412;27;20046;-71
2021/03/06 01:47:01;;;;;;;7.30;5.03;;;7.00;54.70;;;;;;4266639;27;20055;-72
2021/03/06 01:49:03;;;;;;;10.32;6.80;;;7.40;56.80;;;;;;4266656;27;20403;-72
2021/03/06 01:51:05;;;;;;;9.65;6.90;;;6.80;53.70;;;;;;4266507;27;20502;-71
2021/03/06 01:53:09;;;;;;;14.80;6.05;;;6.60;53.40;;;;;;4266269;27;20042;-71
2021/03/06 01:55:11;;;;;;;8.45;6.70;;;6.60;57.10;;;;;;4266528;27;20047;-71
2021/03/06 01:57:13;;;;;;;10.63;5.40;;;6.40;55.10;;;;;;4266627;27;20038;-71
2021/03/06 01:59:16;;;;;;;9.48;6.50;;;6.90;59.40;;;;;;4266889;27;20047;-71
2021/03/06 02:01:18;;;;;;;6.00;3.85;;;6.90;58.10;;;;;;4268535;27;20050;-72
2021/03/06 02:03:19;;;;;;;4.40;3.22;;;7.00;62.40;;;;;;4269213;27;20039;-71
2021/03/06 02:05:21;;;;;;;11.00;6.60;;;7.60;62.20;;;;;;4269587;27;20103;-72
2021/03/06 02:07:23;;;;;;;12.73;6.93;;;7.40;55.40;;;;;;4269584;27;20050;-71
2021/03/06 02:09:24;;;;;;;17.20;7.38;;;7.40;59.50;;;;;;4267659;27;20047;-72
2021/03/06 02:11:37;;;;;;;10.60;7.10;;;6.70;56.60;;;;;;4267107;27;20100;-71
2021/03/06 02:13:52;;;;;;;5.60;4.10;;;6.10;55.60;;;;;;4266552;27;20042;-71
2021/03/06 02:16:10;;;;;;;10.48;5.22;;;6.70;67.30;;;;;;4266654;27;20058;-72
2021/03/06 02:18:18;;;;;;;7.20;4.53;;;7.40;66.60;;;;;;4266339;27;20050;-72
2021/03/06 02:20:38;;;;;;;5.32;3.60;;;7.30;58.40;;;;;;4247663;27;20053;-71
2021/03/06 02:22:53;;;;;;;7.90;4.65;;;8.70;58.00;;;;;;4265995;27;20042;-71
2021/03/06 02:25:09;;;;;;;8.80;6.20;;;8.10;55.90;;;;;;4247876;27;20043;-71
2021/03/06 02:27:20;;;;;;;9.98;5.90;;;7.50;53.10;;;;;;4265720;27;20399;-71
2021/03/06 02:29:41;;;;;;;10.63;6.93;;;7.70;54.50;;;;;;4265651;27;20099;-71
2021/03/06 02:31:43;;;;;;;10.27;6.65;;;7.00;52.90;;;;;;4265767;27;20515;-71
2021/03/06 02:33:56;;;;;;;14.07;7.85;;;7.00;61.10;;;;;;4264872;27;20047;-71
2021/03/06 02:36:02;;;;;;;7.10;5.50;;;6.50;55.30;;;;;;4265837;27;20510;-71
2021/03/06 02:38:07;;;;;;;13.32;8.05;;;7.00;58.70;;;;;;4265499;27;20051;-71
2021/03/06 02:40:11;;;;;;;10.13;6.25;;;6.30;54.60;;;;;;4265512;27;20046;-71
2021/03/06 02:42:16;;;;;;;10.20;7.22;;;6.60;64.10;;;;;;4265576;27;20071;-70
2021/03/06 02:44:21;;;;;;;10.10;7.93;;;6.40;62.00;;;;;;4265315;27;20058;-71
2021/03/06 02:46:26;;;;;;;9.75;5.63;;;6.80;58.30;;;;;;4265614;27;20050;-73
2021/03/06 02:48:28;;;;;;;9.73;7.80;;;7.00;60.00;;;;;;4265284;27;20185;-70
2021/03/06 02:50:30;;;;;;;10.13;8.48;;;6.80;55.00;;;;;;4265220;27;20054;-71
2021/03/06 02:52:32;;;;;;;7.97;6.15;;;6.50;58.20;;;;;;4265356;27;20050;-73
2021/03/06 02:54:33;;;;;;;12.38;8.20;;;7.00;56.60;;;;;;4265121;27;20050;-71
2021/03/06 02:56:36;;;;;;;11.68;8.18;;;5.90;56.50;;;;;;4247108;27;20043;-71
2021/03/06 02:59:02;;;;;;;10.98;8.15;;;5.70;60.10;;;;;;4265796;27;20182;-69
2021/03/06 03:01:10;;;;;;;8.77;6.55;;;5.40;58.70;;;;;;4268225;27;20055;-70
2021/03/06 03:03:19;;;;;;;15.43;8.68;;;5.50;64.40;;;;;;4270704;27;20067;-73
2021/03/06 03:05:29;;;;;;;11.48;8.55;;;5.20;60.10;;;;;;4271653;27;20047;-72
2021/03/06 03:07:37;;;;;;;9.75;7.25;;;5.60;60.50;;;;;;4269002;27;20080;-71
2021/03/06 03:09:44;;;;;;;7.55;6.25;;;5.50;60.80;;;;;;4266279;27;20076;-72
2021/03/06 03:11:51;;;;;;;14.18;7.78;;;5.60;66.20;;;;;;4265209;27;20099;-71
2021/03/06 03:13:56;;;;;;;11.30;7.47;;;5.30;60.40;;;;;;4265088;27;20039;-68
2021/03/06 03:16:02;;;;;;;;;;;5.60;62.80;;;;;;4265494;27;20050;-71
2021/03/06 03:18:06;;;;;;;13.77;9.00;;;5.50;65.70;;;;;;4246700;27;19919;-71
2021/03/06 03:20:15;;;;;;;9.85;6.28;;;5.20;59.50;;;;;;4247258;27;20047;-69
2021/03/06 03:22:20;;;;;;;9.70;7.43;;;5.50;63.60;;;;;;4265075;27;20049;-69
2021/03/06 03:24:24;;;;;;;12.20;8.63;;;5.40;61.80;;;;;;4264911;27;20055;-71
2021/03/06 03:26:28;;;;;;;10.48;7.63;;;5.00;59.20;;;;;;4265268;27;20098;-70
2021/03/06 03:28:32;;;;;;;8.43;5.93;;;5.70;63.20;;;;;;4265069;27;20050;-69
2021/03/06 03:30:35;;;;;;;9.13;6.55;;;6.20;64.90;;;;;;4265478;27;21131;-70
2021/03/06 03:32:38;;;;;;;13.10;7.60;;;6.20;65.60;;;;;;4265802;27;20042;-69
2021/03/06 03:34:42;;;;;;;9.40;5.95;;;6.00;61.60;;;;;;4266259;27;20061;-69
2021/03/06 03:36:46;;;;;;;9.60;7.55;;;5.80;62.50;;;;;;4247599;27;20054;-69
2021/03/06 03:38:49;;;;;;;13.93;8.05;;;5.70;62.90;;;;;;4265438;27;20046;-71
2021/03/06 03:40:50;;;;;;;11.88;8.77;;;5.80;60.00;;;;;;4264703;27;20042;-73
2021/03/06 03:42:53;;;;;;;10.18;4.30;;;5.40;59.20;;;;;;4265736;27;20042;-71
2021/03/06 03:44:55;;;;;;;10.85;5.90;;;6.20;67.20;;;;;;4265496;27;20448;-70
2021/03/06 03:46:57;;;;;;;11.30;8.05;;;6.50;65.10;;;;;;4265726;27;20398;-71
2021/03/06 03:49:01;;;;;;;13.32;8.15;;;6.30;58.20;;;;;;4265133;27;20039;-72
2021/03/06 03:51:04;;;;;;;10.52;6.78;;;6.20;57.60;;;;;;4264711;27;20472;-71
2021/03/06 03:53:07;;;;;;;15.32;8.75;;;6.20;59.30;;;;;;4264832;27;20078;-71
2021/03/06 03:55:10;;;;;;;13.63;9.23;;;5.70;59.70;;;;;;4265427;27;20494;-71
2021/03/06 03:57:12;;;;;;;7.88;6.63;;;6.00;59.40;;;;;;4246933;27;20042;-70
2021/03/06 03:59:14;;;;;;;12.85;7.13;;;6.20;62.10;;;;;;4265353;27;20072;-69
2021/03/06 04:01:16;;;;;;;7.90;5.57;;;6.20;61.20;;;;;;4247210;27;20048;-71
2021/03/06 04:03:20;;;;;;;8.82;6.43;;;7.10;66.00;;;;;;4265643;27;20379;-71
2021/03/06 04:05:21;;;;;;;10.90;7.50;;;7.20;58.30;;;;;;4265210;27;20051;-72
2021/03/06 04:07:23;;;;;;;5.45;3.78;;;7.00;58.20;;;;;;4247599;27;20051;-71
2021/03/06 04:09:26;;;;;;;7.75;5.57;;;7.20;64.50;;;;;;4266282;27;20046;-71
2021/03/06 04:11:28;;;;;;;10.90;8.40;;;7.60;57.60;;;;;;4266196;27;20051;-73
2021/03/06 04:13:29;;;;;;;11.95;8.10;;;7.00;55.30;;;;;;4266527;27;20463;-71
2021/03/06 04:15:32;;;;;;;11.20;8.00;;;7.00;56.00;;;;;;4265931;27;20049;-73
2021/03/06 04:17:34;;;;;;;11.55;8.13;;;7.20;57.30;;;;;;4266349;27;20047;-71
2021/03/06 04:19:36;;;;;;;9.90;6.25;;;6.60;56.40;;;;;;4266185;27;20073;-71
2021/03/06 04:21:38;;;;;;;7.18;4.82;;;6.20;61.90;;;;;;4266291;27;20614;-71
2021/03/06 04:23:39;;;;;;;7.15;4.32;;;6.70;64.10;;;;;;4265866;27;20043;-71
2021/03/06 04:25:42;;;;;;;14.95;8.40;;;7.20;60.20;;;;;;4266045;27;20039;-71
2021/03/06 04:27:44;;;;;;;9.30;4.30;;;6.40;56.60;;;;;;4266205;27;20046;-70
2021/03/06 04:29:45;;;;;;;7.93;5.50;;;6.90;66.60;;;;;;4266040;27;20460;-72
2021/03/06 04:31:48;;;;;;;15.63;9.45;;;7.20;60.80;;;;;;4266275;27;20050;-71
2021/03/06 04:33:50;;;;;;;10.27;7.32;;;6.80;55.20;;;;;;4265869;27;20571;-70
2021/03/06 04:35:51;;;;;;;12.68;7.13;;;7.10;55.20;;;;;;4247038;27;20051;-71
2021/03/06 04:37:53;;;;;;;10.27;6.15;;;6.70;56.30;;;;;;4249794;27;20103;-72
2021/03/06 04:39:55;;;;;;;12.60;8.50;;;6.80;60.80;;;;;;4267774;27;20119;-72
2021/03/06 04:41:58;;;;;;;12.35;9.20;;;6.20;56.40;;;;;;4267109;27;20099;-71
2021/03/06 04:43:59;;;;;;;10.98;7.85;;;5.50;59.80;;;;;;4266159;27;20051;-74
2021/03/06 04:46:01;;;;;;;9.70;7.43;;;5.70;60.90;;;;;;4266090;27;20068;-72
2021/03/06 04:48:05;;;;;;;8.75;5.88;;;6.10;60.50;;;;;;4265793;27;20054;-71
2021/03/06 04:50:11;;;;;;;9.63;5.38;;;7.10;60.70;;;;;;4247382;27;20471;-72
2021/03/06 04:52:13;;;;;;;8.70;6.63;;;7.40;60.10;;;;;;4265415;27;20042;-71
2021/03/06 04:54:15;;;;;;;9.88;7.38;;;6.50;58.70;;;;;;4265159;27;20098;-73
2021/03/06 04:56:16;;;;;;;8.15;6.00;;;6.40;58.00;;;;;;4265283;27;20043;-71
2021/03/06 04:58:19;;;;;;;6.82;3.65;;;7.00;61.30;;;;;;4246013;27;20427;-71
2021/03/06 05:00:21;;;;;;;10.75;7.53;;;7.40;62.60;;;;;;4263437;27;20043;-71
2021/03/06 05:02:23;;;;;;;10.25;7.15;;;6.40;56.00;;;;;;4263779;27;20039;-71
2021/03/06 05:04:24;;;;;;;10.32;7.95;;;5.80;58.80;;;;;;4263435;27;20051;-71
2021/03/06 05:06:26;;;;;;;5.75;4.22;;;5.60;59.20;;;;;;4263750;27;20043;-72
2021/03/06 05:08:28;;;;;;;7.82;6.05;;;6.20;70.00;;;;;;4245095;28;20051;-71
2021/03/06 05:10:29;;;;;;;11.48;6.63;;;6.00;61.90;;;;;;4245116;28;20043;-71
2021/03/06 05:12:31;;;;;;;11.57;6.88;;;6.30;59.90;;;;;;4263229;27;20088;-71
2021/03/06 05:14:34;;;;;;;13.10;8.52;;;6.10;60.80;;;;;;4263238;27;20053;-71
2021/03/06 05:16:35;;;;;;;11.90;8.70;;;5.70;58.70;;;;;;4263577;27;20414;-70
2021/03/06 05:18:37;;;;;;;10.27;6.60;;;5.40;59.20;;;;;;4263202;27;20130;-71
2021/03/06 05:20:39;;;;;;;11.00;7.60;;;5.90;63.00;;;;;;4263518;27;20095;-71
2021/03/06 05:22:41;;;;;;;9.18;7.25;;;6.60;61.60;;;;;;4263349;27;20046;-72
2021/03/06 05:24:44;;;;;;;15.13;7.22;;;6.00;64.70;;;;;;4265764;27;20046;-71
2021/03/06 05:27:03;;;;;;;14.52;8.23;;;6.80;58.60;;;;;;4265797;27;20043;-74
2021/03/06 05:29:05;;;;;;;8.93;6.50;;;6.00;57.20;;;;;;4263558;27;20054;-71
2021/03/06 05:31:08;;;;;;;11.18;8.15;;;5.90;62.50;;;;;;4263512;27;20574;-70
2021/03/06 05:33:09;;;;;;;9.48;5.72;;;5.80;60.20;;;;;;4263224;27;20078;-71
2021/03/06 05:35:11;;;;;;;6.32;4.95;;;5.60;62.80;;;;;;4263274;27;20115;-71
2021/03/06 05:37:13;;;;;;;18.52;9.00;;;6.10;66.40;;;;;;4263418;27;20138;-72
2021/03/06 05:39:15;;;;;;;11.88;7.65;;;6.10;59.60;;;;;;4264248;27;20042;-70
2021/03/06 05:41:19;;;;;;;12.98;8.93;;;5.70;59.00;;;;;;4264539;27;20072;-71
2021/03/06 05:43:21;;;;;;;10.10;6.32;;;5.00;61.00;;;;;;4264558;27;20103;-71
2021/03/06 05:45:23;;;;;;;12.32;9.13;;;5.00;67.80;;;;;;4263737;27;20103;-72
2021/03/06 05:47:26;;;;;;;12.90;8.40;;;4.80;61.70;;;;;;4265479;27;20054;-72
2021/03/06 05:49:28;;;;;;;9.15;6.05;;;4.90;67.60;;;;;;4265727;27;20079;-73
2021/03/06 05:51:34;;;;;;;11.93;7.75;;;4.90;71.80;;;;;;4265554;27;20050;-72
2021/03/06 05:53:39;;;;;;;13.05;8.23;;;4.90;63.90;;;;;;4264379;27;20042;-71
2021/03/06 05:55:47;;;;;;;12.10;7.65;;;4.40;65.00;;;;;;4263876;27;20597;-71
2021/03/06 05:57:49;;;;;;;14.93;8.45;;;4.80;68.60;;;;;;4263500;27;20051;-71
2021/03/06 05:59:50;;;;;;;9.48;5.13;;;4.30;64.60;;;;;;4263032;27;20098;-72
2021/03/06 06:01:52;;;;;;;11.85;8.25;;;5.10;71.00;;;;;;4263340;27;20042;-71
2021/03/06 06:03:58;;;;;;;15.27;7.47;;;4.80;62.90;;;;;;4263321;27;20122;-71
2021/03/06 06:06:00;;;;;;;12.98;6.70;;;4.50;65.10;;;;;;4263098;27;20100;-71
2021/03/06 06:08:04;;;;;;;7.15;5.45;;;5.00;69.20;;;;;;4245446;27;20051;-71
2021/03/06 06:10:07;;;;;;;9.63;6.17;;;5.50;68.50;;;;;;4267971;27;20051;-74
2021/03/06 06:12:10;;;;;;;10.45;7.25;;;4.70;62.80;;;;;;4268711;27;20050;-73
2021/03/06 06:14:12;;;;;;;10.60;8.00;;;4.80;64.20;;;;;;4250150;27;20130;-72
2021/03/06 06:16:14;;;;;;;8.18;5.95;;;4.80;63.90;;;;;;4268593;27;20069;-74
2021/03/06 06:18:16;;;;;;;9.65;6.60;;;4.60;69.90;;;;;;4268949;27;20077;-71
2021/03/06 06:20:22;;;;;;;11.27;7.30;;;4.60;67.90;;;;;;4269197;27;20086;-72
2021/03/06 06:22:24;;;;;;;;;;;4.30;68.80;;;;;;4270102;27;20053;-71
2021/03/06 06:24:25;;;;;;;10.00;6.45;;;4.00;66.50;;;;;;4266647;27;20287;-71
2021/03/06 06:26:28;;;;;;;11.95;7.68;;;4.30;69.70;;;;;;4270032;27;20051;-73
2021/03/06 06:28:29;;;;;;;8.93;5.90;;;4.60;66.60;;;;;;4269493;27;20039;-70
2021/03/06 06:30:32;;;;;;;15.52;8.60;;;4.90;68.70;;;;;;4269139;27;20053;-70
2021/03/06 06:32:42;;;;;;;12.55;8.52;;;4.20;67.00;;;;;;4269189;27;20053;-71
2021/03/06 06:34:58;;;;;;;11.75;8.00;;;4.30;66.20;;;;;;4269353;27;20684;-71
2021/03/06 06:37:07;;;;;;;9.55;6.20;;;4.30;73.20;;;;;;4269892;27;20471;-70
2021/03/06 06:39:09;;;;;;;9.50;5.07;;;4.90;68.80;;;;;;4266217;27;20061;-70
2021/03/06 06:41:11;;;;;;;14.32;6.53;;;5.60;70.10;;;;;;4266029;27;20107;-71
2021/03/06 06:43:23;;;;;;;12.43;7.63;;;5.50;63.10;;;;;;4266071;27;20043;-70
2021/03/06 06:45:34;;;;;;;13.32;7.45;;;4.90;64.80;;;;;;4265690;27;20046;-71
2021/03/06 06:47:39;;;;;;;11.88;8.43;;;5.00;64.70;;;;;;4266259;27;20620;-71
2021/03/06 06:49:45;;;;;;;14.35;8.48;;;4.60;66.10;;;;;;4265804;27;20038;-71
2021/03/06 06:51:57;;;;;;;13.32;7.85;;;4.60;65.60;;;;;;4265783;27;20084;-71
2021/03/06 06:54:10;;;;;;;12.25;7.15;;;4.40;68.80;;;;;;4265393;27;20111;-71
2021/03/06 06:56:23;;;;;;;16.00;7.68;;;4.70;66.70;;;;;;4265557;27;20055;-71
2021/03/06 06:58:32;;;;;;;16.15;8.50;;;4.10;67.00;;;;;;4265385;27;20181;-70
2021/03/06 07:00:35;;;;;;;13.90;7.50;;;4.00;66.20;;;;;;4265682;27;20043;-71
2021/03/06 07:02:49;;;;;;;11.75;7.80;;;6.00;72.00;;;;;;4265742;27;20078;-72
2021/03/06 07:04:53;;;;;;;10.68;7.20;;;5.90;62.80;;;;;;4266041;27;20047;-71
2021/03/06 07:06:58;;;;;;;10.02;6.85;;;5.80;61.30;;;;;;4268388;27;20048;-72
2021/03/06 07:09:11;;;;;;;11.60;7.95;;;5.20;63.90;;;;;;4269618;27;20486;-72
2021/03/06 07:11:24;;;;;;;12.63;8.32;;;5.10;63.10;;;;;;4253098;27;20076;-71
2021/03/06 07:13:40;;;;;;;13.45;7.88;;;4.90;64.80;;;;;;4269162;27;20091;-72
2021/03/06 07:15:50;;;;;;;11.82;8.27;;;4.70;63.30;;;;;;4267687;27;20050;-72
2021/03/06 07:17:54;;;;;;;10.80;6.95;;;4.40;64.60;;;;;;4268944;27;20047;-71
2021/03/06 07:19:56;;;;;;;14.90;8.60;;;5.00;70.70;;;;;;4267415;27;20047;-71
2021/03/06 07:21:58;;;;;;;13.90;7.90;;;4.40;69.10;;;;;;4267820;27;20043;-73
2021/03/06 07:24:00;;;;;;;11.45;7.30;;;4.00;66.80;;;;;;4267642;27;20042;-69
2021/03/06 07:26:02;;;;;;;8.65;5.57;;;5.40;66.30;;;;;;4266006;27;20095;-69
2021/03/06 07:28:05;;;;;;;15.15;8.30;;;8.30;61.30;;;;;;4265338;27;20084;-69
2021/03/06 07:30:09;;;;;;;11.95;7.88;;;7.40;53.30;;;;;;4265449;27;20384;-71
2021/03/06 07:32:14;;;;;;;12.00;7.15;;;8.40;52.70;;;;;;4265035;27;20436;-69
2021/03/06 07:34:18;;;;;;;9.77;6.85;;;10.50;51.00;;;;;;4264835;27;20053;-69
2021/03/06 07:36:20;;;;;;;13.15;7.10;;;12.50;47.30;;;;;;4264613;27;20043;-69
2021/03/06 07:38:22;;;;;;;13.40;7.72;;;13.30;41.50;;;;;;4264768;27;20070;-69
2021/03/06 07:40:28;;;;;;;12.32;7.60;;;14.40;38.10;;;;;;4265022;27;20046;-71
2021/03/06 07:42:44;;;;;;;13.50;6.95;;;14.40;38.60;;;;;;4268444;27;20106;-72
2021/03/06 07:44:48;;;;;;;9.85;7.13;;;15.00;36.00;;;;;;4264596;27;20057;-69
2021/03/06 07:46:50;;;;;;;9.77;7.38;;;14.90;36.10;;;;;;4264362;27;20042;-69
2021/03/06 07:48:57;;;;;;;10.25;7.45;;;15.20;34.10;;;;;;4264398;27;20050;-69
2021/03/06 07:50:59;;;;;;;9.43;7.68;;;16.10;35.30;;;;;;4265220;27;20047;-74
2021/03/06 07:53:02;;;;;;;10.90;8.45;;;16.20;32.70;;;;;;4250415;27;20388;-71
2021/03/06 07:55:08;;;;;;;11.45;7.90;;;17.70;31.60;;;;;;4269122;27;20047;-78
2021/03/06 07:57:10;;;;;;;28.90;26.63;;;17.80;30.60;;;;;;4256590;27;20047;-68
2021/03/06 07:59:13;;;;;;;11.50;10.32;;;18.40;33.30;;;;;;4258248;27;20050;-65
2021/03/06 08:01:25;;;;;;;28.63;26.48;;;19.50;30.50;;;;;;4257359;27;20070;-67
2021/03/06 08:03:38;;;;;;;8.52;6.78;;;19.30;30.20;;;;;;4255736;27;20486;-65
2021/03/06 08:05:46;;;;;;;9.00;7.13;;;20.90;29.00;;;;;;4255696;27;20493;-66
2021/03/06 08:07:48;;;;;;;9.45;8.20;;;21.10;28.80;;;;;;4255002;27;20077;-70
2021/03/06 08:10:00;;;;;;;5.20;4.28;;;20.20;28.00;;;;;;4255259;27;20043;-70
2021/03/06 08:12:02;;;;;;;8.85;6.15;;;20.60;29.50;;;;;;4255095;27;20054;-67
2021/03/06 08:14:06;;;;;;;10.40;5.53;;;19.40;28.20;;;;;;4255647;27;20083;-67
2021/03/06 08:16:34;;;;;;;7.93;4.85;;;19.00;28.30;;;;;;4256045;27;20466;-68
2021/03/06 08:18:36;;;;;;;6.05;4.20;;;18.20;29.00;;;;;;4255894;27;20070;-69
2021/03/06 08:20:37;;;;;;;7.18;4.90;;;15.50;30.80;;;;;;4255665;27;20494;-67
2021/03/06 08:22:39;;;;;;;14.98;5.03;;;13.10;34.00;;;;;;4255646;27;20046;-68
2021/03/06 08:24:41;;;;;;;20.17;6.22;;;12.50;38.30;;;;;;4255326;27;20398;-67
2021/03/06 08:26:44;;;;;;;15.32;6.47;;;11.50;37.50;;;;;;4255251;27;20075;-71
2021/03/06 08:28:49;;;;;;;34.75;5.93;;;9.80;41.60;;;;;;4255528;27;20071;-68
2021/03/06 08:30:51;;;;;;;24.95;5.30;;;11.20;42.30;;;;;;4252180;27;20043;-68
2021/03/06 08:33:16;;;;;;;18.25;5.85;;;11.50;42.60;;;;;;4254871;27;20043;-69
2021/03/06 08:35:24;;;;;;;13.07;6.30;;;11.10;43.40;;;;;;4249761;27;20066;-68
2021/03/06 08:37:37;;;;;;;19.45;5.97;;;10.70;40.10;;;;;;4244830;27;20043;-68
2021/03/06 08:39:41;;;;;;;18.77;4.78;;;10.90;44.50;;;;;;4247005;27;20704;-68
2021/03/06 08:41:44;;;;;;;15.27;4.97;;;11.30;44.50;;;;;;4249420;27;20051;-68
2021/03/06 08:43:48;;;;;;;7.93;5.38;;;10.50;42.00;;;;;;4263763;27;20579;-69
2021/03/06 08:45:50;;;;;;;13.63;4.53;;;10.20;42.80;;;;;;4265591;27;20050;-67
2021/03/06 08:47:54;;;;;;;9.57;5.35;;;11.10;42.80;;;;;;4265057;27;20141;-71
2021/03/06 08:49:59;;;;;;;7.47;3.97;;;9.50;42.60;;;;;;4266114;27;20154;-68
2021/03/06 08:52:01;;;;;;;11.30;5.13;;;10.90;46.60;;;;;;4232090;27;20048;-68
2021/03/06 08:54:06;;;;;;;15.20;5.57;;;10.10;45.20;;;;;;4246763;27;20047;-68
2021/03/06 08:56:07;;;;;;;6.22;4.10;;;10.30;45.70;;;;;;4246773;27;20055;-69
2021/03/06 08:58:11;;;;;;;5.97;3.97;;;11.00;44.50;;;;;;4247077;27;20054;-68
2021/03/06 09:00:21;;;;;;;7.63;4.40;;;10.80;43.90;;;;;;4247023;27;20054;-67
2021/03/06 09:02:27;;;;;;;9.82;4.90;;;10.10;44.40;;;;;;4247457;27;20051;-71
2021/03/06 09:04:29;;;;;;;9.65;4.97;;;9.50;42.60;;;;;;4246958;28;20133;-67
2021/03/06 09:06:35;;;;;;;8.98;5.25;;;9.80;45.70;;;;;;4247293;27;20050;-68
2021/03/06 09:08:37;;;;;;;11.57;5.30;;;10.20;42.10;;;;;;4256516;27;20121;-69
2021/03/06 09:10:41;;;;;;;7.65;5.25;;;9.40;44.90;;;;;;4248854;27;20054;-69
2021/03/06 09:12:44;;;;;;;8.87;4.20;;;9.80;43.90;;;;;;4257237;27;20452;-73
2021/03/06 09:14:46;;;;;;;9.00;4.88;;;9.70;47.10;;;;;;4260554;27;20487;-73
2021/03/06 09:16:48;;;;;;;14.07;5.28;;;10.40;43.60;;;;;;4262352;27;20204;-70
2021/03/06 09:18:51;;;;;;;7.95;4.47;;;9.70;41.90;;;;;;4264209;27;20078;-70
2021/03/06 09:20:55;;;;;;;8.57;4.00;;;9.70;44.50;;;;;;4263558;27;20084;-71
2021/03/06 09:22:58;;;;;;;7.35;3.63;;;9.70;45.20;;;;;;4256911;27;20468;-70
2021/03/06 09:24:59;;;;;;;6.10;3.47;;;11.50;45.60;;;;;;4255567;27;20051;-72
2021/03/06 09:27:01;;;;;;;11.10;5.05;;;11.20;42.50;;;;;;4254434;27;20077;-71
2021/03/06 09:29:03;;;;;;;11.57;4.78;;;10.70;43.60;;;;;;4253072;27;20464;-71
2021/03/06 09:31:12;;;;;;;7.68;5.45;;;10.20;43.50;;;;;;4248217;27;20046;-71
2021/03/06 09:33:29;;;;;;;7.25;5.13;;;9.30;42.10;;;;;;4254796;27;20582;-70
2021/03/06 09:35:33;;;;;;;6.75;4.88;;;9.10;44.30;;;;;;4235281;28;20043;-72
2021/03/06 09:37:35;;;;;;;9.90;4.60;;;9.20;44.10;;;;;;4236094;28;20118;-70
2021/03/06 09:39:38;;;;;;;10.05;3.90;;;9.50;48.70;;;;;;4257513;27;20222;-71
2021/03/06 09:41:42;;;;;;;10.32;4.65;;;10.90;45.50;;;;;;4255353;27;20140;-69
2021/03/06 09:43:51;;;;;;;8.37;4.27;;;11.20;44.10;;;;;;4257619;27;20468;-70
2021/03/06 09:45:53;;;;;;;7.13;3.80;;;11.70;42.30;;;;;;4258178;27;20452;-71
2021/03/06 09:48:02;;;;;;;7.55;2.95;;;12.20;40.70;;;;;;4258102;27;20127;-71
2021/03/06 09:50:06;;;;;;;10.75;3.08;;;12.40;42.30;;;;;;4258064;27;20079;-70
2021/03/06 09:52:08;;;;;;;15.63;4.53;;;12.20;41.30;;;;;;4255613;27;20051;-72
2021/03/06 09:54:11;;;;;;;10.98;4.18;;;10.70;36.50;;;;;;4256677;27;20049;-72
2021/03/06 09:56:14;;;;;;;8.55;3.53;;;11.20;42.60;;;;;;4255330;27;20084;-73
2021/03/06 09:58:18;;;;;;;13.93;3.65;;;12.10;40.10;;;;;;4261517;27;20051;-67
2021/03/06 10:00:24;;;;;;;6.75;2.92;;;12.60;39.60;;;;;;4262652;27;20057;-70
2021/03/06 10:02:25;;;;;;;5.43;2.92;;;12.40;37.40;;;;;;4250836;27;20135;-70
2021/03/06 10:04:27;;;;;;;9.75;3.08;;;13.00;38.30;;;;;;4249789;27;20047;-70
2021/03/06 10:06:32;;;;;;;7.57;3.20;;;12.10;38.90;;;;;;4263293;27;20058;-71
2021/03/06 10:08:38;;;;;;;4.68;2.78;;;10.60;35.50;;;;;;4266912;27;20043;-69
2021/03/06 10:10:41;;;;;;;9.13;3.45;;;11.00;39.90;;;;;;4266876;27;20087;-68
2021/03/06 10:12:45;;;;;;;4.25;2.80;;;10.60;36.00;;;;;;4266822;27;20054;-72
2021/03/06 10:14:49;;;;;;;10.32;3.00;;;10.60;36.50;;;;;;4240808;27;20047;-71
2021/03/06 10:16:52;;;;;;;6.57;2.83;;;11.00;37.30;;;;;;4266231;27;20519;-69
2021/03/06 10:19:00;;;;;;;6.03;2.90;;;11.20;37.30;;;;;;4266534;27;20553;-72
2021/03/06 10:21:13;;;;;;;9.23;3.05;;;11.20;40.70;;;;;;4266878;27;20115;-72
2021/03/06 10:23:28;;;;;;;4.32;2.78;;;11.80;38.00;;;;;;4268402;27;20042;-71
2021/03/06 10:25:30;;;;;;;5.85;3.10;;;12.30;36.10;;;;;;4262848;27;20039;-73
2021/03/06 10:27:33;;;;;;;6.82;3.00;;;11.50;34.00;;;;;;4258265;27;20169;-69
2021/03/06 10:29:35;;;;;;;6.22;3.13;;;10.70;36.50;;;;;;4269392;27;20042;-69
2021/03/06 10:31:38;;;;;;;6.47;3.60;;;10.40;39.10;;;;;;4265039;27;20066;-68
2021/03/06 10:33:41;;;;;;;7.95;3.65;;;9.30;37.40;;;;;;4252780;27;20069;-71
2021/03/06 10:35:51;;;;;;;5.70;2.40;;;8.80;38.40;;;;;;4264366;27;20566;-70
2021/03/06 10:37:54;;;;;;;9.68;2.78;;;10.40;40.10;;;;;;4270548;27;20038;-67
2021/03/06 10:40:00;;;;;;;7.60;2.47;;;10.00;40.20;;;;;;4267441;27;20042;-70
2021/03/06 10:42:02;;;;;;;5.97;3.15;;;10.90;43.30;;;;;;4266511;27;20035;-68
2021/03/06 10:44:04;;;;;;;7.97;3.55;;;10.80;38.60;;;;;;4252829;27;20467;-72
2021/03/06 10:46:13;;;;;;;10.05;3.58;;;10.30;36.40;;;;;;4253031;27;20043;-74
2021/03/06 10:48:27;;;;;;;7.38;3.65;;;10.50;38.50;;;;;;4241312;27;20055;-72
2021/03/06 10:50:32;;;;;;;9.00;2.60;;;10.50;40.20;;;;;;4248383;27;20054;-69